sensor_id;sensor_type;location;lat;lon;timestamp;P1;durP1;ratioP1;P2;durP2;ratioP2
23119;SDS011;11729;50.836;4.330;2023-04-25T00:01:20;19.23;;;9.13;;
23119;SDS011;11729;50.836;4.330;2023-04-25T00:03:49;29.25;;;9.15;;
23119;SDS011;11729;50.836;4.330;2023-04-25T00:06:17;26.88;;;9.38;;
23119;SDS011;11729;50.836;4.330;2023-04-25T00:08:43;19.90;;;8.48;;
23119;SDS011;11729;50.836;4.330;2023-04-25T00:11:09;27.23;;;9.45;;
23119;SDS011;11729;50.836;4.330;2023-04-25T00:13:35;26.35;;;9.02;;
23119;SDS011;11729;50.836;4.330;2023-04-25T00:16:06;28.52;;;9.75;;
23119;SDS011;11729;50.836;4.330;2023-04-25T00:18:32;24.27;;;9.43;;
23119;SDS011;11729;50.836;4.330;2023-04-25T00:20:58;20.63;;;8.77;;
23119;SDS011;11729;50.836;4.330;2023-04-25T00:23:24;21.08;;;8.73;;
23119;SDS011;11729;50.836;4.330;2023-04-25T00:25:50;27.58;;;8.85;;
23119;SDS011;11729;50.836;4.330;2023-04-25T00:28:18;25.48;;;9.15;;
23119;SDS011;11729;50.836;4.330;2023-04-25T00:30:47;25.85;;;8.93;;
23119;SDS011;11729;50.836;4.330;2023-04-25T00:33:13;24.50;;;9.00;;
23119;SDS011;11729;50.836;4.330;2023-04-25T00:35:39;26.17;;;9.90;;
23119;SDS011;11729;50.836;4.330;2023-04-25T00:38:05;30.98;;;9.55;;
23119;SDS011;11729;50.836;4.330;2023-04-25T00:40:30;25.20;;;9.23;;
23119;SDS011;11729;50.836;4.330;2023-04-25T00:42:56;21.80;;;8.85;;
23119;SDS011;11729;50.836;4.330;2023-04-25T00:45:27;27.33;;;9.75;;
23119;SDS011;11729;50.836;4.330;2023-04-25T00:47:56;27.17;;;9.20;;
23119;SDS011;11729;50.836;4.330;2023-04-25T00:50:22;26.30;;;9.90;;
23119;SDS011;11729;50.836;4.330;2023-04-25T00:52:48;23.17;;;10.30;;
23119;SDS011;11729;50.836;4.330;2023-04-25T00:55:14;24.23;;;10.18;;
23119;SDS011;11729;50.836;4.330;2023-04-25T00:57:40;28.38;;;9.93;;
23119;SDS011;11729;50.836;4.330;2023-04-25T01:00:08;34.55;;;10.32;;
23119;SDS011;11729;50.836;4.330;2023-04-25T01:02:35;19.90;;;9.50;;
23119;SDS011;11729;50.836;4.330;2023-04-25T01:05:02;24.73;;;9.40;;
23119;SDS011;11729;50.836;4.330;2023-04-25T01:07:32;20.92;;;10.02;;
23119;SDS011;11729;50.836;4.330;2023-04-25T01:09:59;21.40;;;9.82;;
23119;SDS011;11729;50.836;4.330;2023-04-25T01:12:29;31.33;;;10.75;;
23119;SDS011;11729;50.836;4.330;2023-04-25T01:14:58;29.48;;;10.70;;
23119;SDS011;11729;50.836;4.330;2023-04-25T01:17:23;26.42;;;10.38;;
23119;SDS011;11729;50.836;4.330;2023-04-25T01:19:53;27.95;;;10.70;;
23119;SDS011;11729;50.836;4.330;2023-04-25T01:22:18;34.17;;;11.07;;
23119;SDS011;11729;50.836;4.330;2023-04-25T01:24:45;29.63;;;10.35;;
23119;SDS011;11729;50.836;4.330;2023-04-25T01:27:11;29.40;;;9.95;;
23119;SDS011;11729;50.836;4.330;2023-04-25T01:29:37;21.38;;;9.85;;
23119;SDS011;11729;50.836;4.330;2023-04-25T01:32:04;25.10;;;10.85;;
23119;SDS011;11729;50.836;4.330;2023-04-25T01:34:30;39.90;;;10.98;;
23119;SDS011;11729;50.836;4.330;2023-04-25T01:36:56;28.13;;;10.73;;
23119;SDS011;11729;50.836;4.330;2023-04-25T01:39:24;22.85;;;10.50;;
23119;SDS011;11729;50.836;4.330;2023-04-25T01:41:50;23.60;;;10.48;;
23119;SDS011;11729;50.836;4.330;2023-04-25T01:44:16;32.22;;;10.45;;
23119;SDS011;11729;50.836;4.330;2023-04-25T01:46:42;29.52;;;10.52;;
23119;SDS011;11729;50.836;4.330;2023-04-25T01:49:08;27.10;;;11.43;;
23119;SDS011;11729;50.836;4.330;2023-04-25T01:51:33;34.28;;;10.93;;
23119;SDS011;11729;50.836;4.330;2023-04-25T01:54:00;32.85;;;10.77;;
23119;SDS011;11729;50.836;4.330;2023-04-25T01:56:30;31.27;;;11.20;;
23119;SDS011;11729;50.836;4.330;2023-04-25T01:58:56;23.98;;;9.93;;
23119;SDS011;11729;50.836;4.330;2023-04-25T02:01:23;32.60;;;12.00;;
23119;SDS011;11729;50.836;4.330;2023-04-25T02:03:49;30.85;;;10.85;;
23119;SDS011;11729;50.836;4.330;2023-04-25T02:06:15;25.45;;;11.15;;
23119;SDS011;11729;50.836;4.330;2023-04-25T02:08:40;23.65;;;10.65;;
23119;SDS011;11729;50.836;4.330;2023-04-25T02:11:06;29.08;;;10.63;;
23119;SDS011;11729;50.836;4.330;2023-04-25T02:13:34;32.45;;;10.60;;
23119;SDS011;11729;50.836;4.330;2023-04-25T02:15:59;36.10;;;11.55;;
23119;SDS011;11729;50.836;4.330;2023-04-25T02:18:25;28.10;;;11.10;;
23119;SDS011;11729;50.836;4.330;2023-04-25T02:20:51;28.05;;;11.88;;
23119;SDS011;11729;50.836;4.330;2023-04-25T02:23:17;23.95;;;10.80;;
23119;SDS011;11729;50.836;4.330;2023-04-25T02:25:44;34.03;;;10.73;;
23119;SDS011;11729;50.836;4.330;2023-04-25T02:28:09;32.30;;;10.90;;
23119;SDS011;11729;50.836;4.330;2023-04-25T02:30:35;26.98;;;10.80;;
23119;SDS011;11729;50.836;4.330;2023-04-25T02:33:01;32.28;;;11.25;;
23119;SDS011;11729;50.836;4.330;2023-04-25T02:35:27;29.17;;;12.20;;
23119;SDS011;11729;50.836;4.330;2023-04-25T02:37:52;28.67;;;12.82;;
23119;SDS011;11729;50.836;4.330;2023-04-25T02:40:18;30.00;;;12.27;;
23119;SDS011;11729;50.836;4.330;2023-04-25T02:42:44;29.25;;;11.45;;
23119;SDS011;11729;50.836;4.330;2023-04-25T02:45:10;25.63;;;11.48;;
23119;SDS011;11729;50.836;4.330;2023-04-25T02:47:36;33.65;;;11.00;;
23119;SDS011;11729;50.836;4.330;2023-04-25T02:50:02;28.30;;;11.63;;
23119;SDS011;11729;50.836;4.330;2023-04-25T02:52:28;26.00;;;10.77;;
23119;SDS011;11729;50.836;4.330;2023-04-25T02:54:54;31.13;;;10.45;;
23119;SDS011;11729;50.836;4.330;2023-04-25T02:57:19;29.55;;;11.02;;
23119;SDS011;11729;50.836;4.330;2023-04-25T02:59:45;24.08;;;11.20;;
23119;SDS011;11729;50.836;4.330;2023-04-25T03:02:11;33.92;;;11.25;;
23119;SDS011;11729;50.836;4.330;2023-04-25T03:04:36;34.28;;;12.20;;
23119;SDS011;11729;50.836;4.330;2023-04-25T03:07:02;32.25;;;11.25;;
23119;SDS011;11729;50.836;4.330;2023-04-25T03:09:28;30.83;;;11.85;;
23119;SDS011;11729;50.836;4.330;2023-04-25T03:11:54;37.08;;;11.48;;
23119;SDS011;11729;50.836;4.330;2023-04-25T03:14:20;21.90;;;11.00;;
23119;SDS011;11729;50.836;4.330;2023-04-25T03:16:46;29.75;;;11.40;;
23119;SDS011;11729;50.836;4.330;2023-04-25T03:19:13;23.17;;;10.75;;
23119;SDS011;11729;50.836;4.330;2023-04-25T03:21:41;29.75;;;11.07;;
23119;SDS011;11729;50.836;4.330;2023-04-25T03:24:06;28.73;;;11.27;;
23119;SDS011;11729;50.836;4.330;2023-04-25T03:26:32;27.55;;;11.07;;
23119;SDS011;11729;50.836;4.330;2023-04-25T03:29:00;30.33;;;11.70;;
23119;SDS011;11729;50.836;4.330;2023-04-25T03:31:25;34.17;;;12.05;;
23119;SDS011;11729;50.836;4.330;2023-04-25T03:33:51;28.60;;;12.60;;
23119;SDS011;11729;50.836;4.330;2023-04-25T03:36:16;35.00;;;11.23;;
23119;SDS011;11729;50.836;4.330;2023-04-25T03:38:42;29.88;;;11.68;;
23119;SDS011;11729;50.836;4.330;2023-04-25T03:41:08;29.95;;;11.55;;
23119;SDS011;11729;50.836;4.330;2023-04-25T03:43:33;25.38;;;11.10;;
23119;SDS011;11729;50.836;4.330;2023-04-25T03:45:59;27.58;;;11.55;;
23119;SDS011;11729;50.836;4.330;2023-04-25T03:48:27;30.50;;;11.48;;
23119;SDS011;11729;50.836;4.330;2023-04-25T03:50:53;42.38;;;11.48;;
23119;SDS011;11729;50.836;4.330;2023-04-25T03:53:19;30.55;;;10.65;;
23119;SDS011;11729;50.836;4.330;2023-04-25T03:55:45;32.90;;;10.35;;
23119;SDS011;11729;50.836;4.330;2023-04-25T03:58:12;27.45;;;10.57;;
23119;SDS011;11729;50.836;4.330;2023-04-25T04:00:37;24.02;;;10.60;;
23119;SDS011;11729;50.836;4.330;2023-04-25T04:03:03;25.13;;;10.93;;
23119;SDS011;11729;50.836;4.330;2023-04-25T04:05:29;31.63;;;10.93;;
23119;SDS011;11729;50.836;4.330;2023-04-25T04:07:54;24.38;;;10.38;;
23119;SDS011;11729;50.836;4.330;2023-04-25T04:10:20;23.13;;;9.77;;
23119;SDS011;11729;50.836;4.330;2023-04-25T04:12:46;26.08;;;9.63;;
23119;SDS011;11729;50.836;4.330;2023-04-25T04:15:12;32.13;;;9.35;;
23119;SDS011;11729;50.836;4.330;2023-04-25T04:17:39;21.55;;;9.85;;
23119;SDS011;11729;50.836;4.330;2023-04-25T04:20:07;23.40;;;9.48;;
23119;SDS011;11729;50.836;4.330;2023-04-25T04:22:34;23.43;;;9.27;;
23119;SDS011;11729;50.836;4.330;2023-04-25T04:25:01;21.13;;;9.43;;
23119;SDS011;11729;50.836;4.330;2023-04-25T04:27:27;23.65;;;9.13;;
23119;SDS011;11729;50.836;4.330;2023-04-25T04:29:54;22.42;;;9.55;;
23119;SDS011;11729;50.836;4.330;2023-04-25T04:32:19;19.00;;;8.95;;
23119;SDS011;11729;50.836;4.330;2023-04-25T04:34:45;24.30;;;9.25;;
23119;SDS011;11729;50.836;4.330;2023-04-25T04:37:12;18.08;;;8.65;;
23119;SDS011;11729;50.836;4.330;2023-04-25T04:39:38;22.83;;;9.02;;
23119;SDS011;11729;50.836;4.330;2023-04-25T04:42:03;25.48;;;9.30;;
23119;SDS011;11729;50.836;4.330;2023-04-25T04:44:30;15.93;;;8.25;;
23119;SDS011;11729;50.836;4.330;2023-04-25T04:46:59;26.08;;;8.90;;
23119;SDS011;11729;50.836;4.330;2023-04-25T04:49:26;22.45;;;8.73;;
23119;SDS011;11729;50.836;4.330;2023-04-25T04:51:51;24.00;;;9.63;;
23119;SDS011;11729;50.836;4.330;2023-04-25T04:54:17;33.30;;;10.10;;
23119;SDS011;11729;50.836;4.330;2023-04-25T04:56:43;26.42;;;9.98;;
23119;SDS011;11729;50.836;4.330;2023-04-25T04:59:08;21.30;;;10.75;;
23119;SDS011;11729;50.836;4.330;2023-04-25T05:01:34;22.58;;;10.18;;
23119;SDS011;11729;50.836;4.330;2023-04-25T05:04:00;23.10;;;10.50;;
23119;SDS011;11729;50.836;4.330;2023-04-25T05:06:28;21.88;;;10.70;;
23119;SDS011;11729;50.836;4.330;2023-04-25T05:08:56;29.15;;;10.55;;
23119;SDS011;11729;50.836;4.330;2023-04-25T05:11:22;23.13;;;10.03;;
23119;SDS011;11729;50.836;4.330;2023-04-25T05:13:50;21.70;;;9.48;;
23119;SDS011;11729;50.836;4.330;2023-04-25T05:16:17;23.80;;;8.93;;
23119;SDS011;11729;50.836;4.330;2023-04-25T05:18:44;27.00;;;9.85;;
23119;SDS011;11729;50.836;4.330;2023-04-25T05:21:11;24.67;;;10.25;;
23119;SDS011;11729;50.836;4.330;2023-04-25T05:23:36;16.90;;;9.07;;
23119;SDS011;11729;50.836;4.330;2023-04-25T05:26:02;23.98;;;9.50;;
23119;SDS011;11729;50.836;4.330;2023-04-25T05:28:28;24.67;;;9.75;;
23119;SDS011;11729;50.836;4.330;2023-04-25T05:30:53;24.77;;;9.63;;
23119;SDS011;11729;50.836;4.330;2023-04-25T05:33:19;19.70;;;10.38;;
23119;SDS011;11729;50.836;4.330;2023-04-25T05:35:46;20.33;;;10.48;;
23119;SDS011;11729;50.836;4.330;2023-04-25T05:38:11;19.33;;;9.80;;
23119;SDS011;11729;50.836;4.330;2023-04-25T05:40:37;17.00;;;9.80;;
23119;SDS011;11729;50.836;4.330;2023-04-25T05:43:03;22.45;;;10.75;;
23119;SDS011;11729;50.836;4.330;2023-04-25T05:45:29;20.60;;;10.13;;
23119;SDS011;11729;50.836;4.330;2023-04-25T05:47:55;20.02;;;10.32;;
23119;SDS011;11729;50.836;4.330;2023-04-25T05:50:21;17.95;;;10.43;;
23119;SDS011;11729;50.836;4.330;2023-04-25T05:52:47;18.77;;;10.52;;
23119;SDS011;11729;50.836;4.330;2023-04-25T05:55:12;27.88;;;10.48;;
23119;SDS011;11729;50.836;4.330;2023-04-25T05:57:38;21.75;;;10.32;;
23119;SDS011;11729;50.836;4.330;2023-04-25T06:00:08;22.73;;;10.63;;
23119;SDS011;11729;50.836;4.330;2023-04-25T06:02:35;22.65;;;10.13;;
23119;SDS011;11729;50.836;4.330;2023-04-25T06:05:00;23.83;;;10.73;;
23119;SDS011;11729;50.836;4.330;2023-04-25T06:07:28;21.77;;;9.88;;
23119;SDS011;11729;50.836;4.330;2023-04-25T06:09:56;24.50;;;10.80;;
23119;SDS011;11729;50.836;4.330;2023-04-25T06:12:22;24.10;;;10.80;;
23119;SDS011;11729;50.836;4.330;2023-04-25T06:14:48;18.60;;;10.23;;
23119;SDS011;11729;50.836;4.330;2023-04-25T06:17:13;21.25;;;9.65;;
23119;SDS011;11729;50.836;4.330;2023-04-25T06:19:39;22.98;;;10.32;;
23119;SDS011;11729;50.836;4.330;2023-04-25T06:22:07;20.13;;;10.93;;
23119;SDS011;11729;50.836;4.330;2023-04-25T06:24:33;19.20;;;10.93;;
23119;SDS011;11729;50.836;4.330;2023-04-25T06:26:59;23.38;;;9.35;;
23119;SDS011;11729;50.836;4.330;2023-04-25T06:29:25;22.42;;;9.75;;
23119;SDS011;11729;50.836;4.330;2023-04-25T06:31:51;22.52;;;9.70;;
23119;SDS011;11729;50.836;4.330;2023-04-25T06:34:17;20.42;;;8.57;;
23119;SDS011;11729;50.836;4.330;2023-04-25T06:36:42;21.70;;;9.48;;
23119;SDS011;11729;50.836;4.330;2023-04-25T06:39:09;19.33;;;8.57;;
23119;SDS011;11729;50.836;4.330;2023-04-25T06:41:35;25.83;;;9.48;;
23119;SDS011;11729;50.836;4.330;2023-04-25T06:44:01;19.55;;;8.75;;
23119;SDS011;11729;50.836;4.330;2023-04-25T06:46:26;17.95;;;8.75;;
23119;SDS011;11729;50.836;4.330;2023-04-25T06:48:52;16.45;;;8.48;;
23119;SDS011;11729;50.836;4.330;2023-04-25T06:51:18;22.55;;;8.45;;
23119;SDS011;11729;50.836;4.330;2023-04-25T06:53:43;20.73;;;8.45;;
23119;SDS011;11729;50.836;4.330;2023-04-25T06:56:09;19.92;;;8.40;;
23119;SDS011;11729;50.836;4.330;2023-04-25T06:58:35;20.88;;;8.60;;
23119;SDS011;11729;50.836;4.330;2023-04-25T07:01:00;15.60;;;8.30;;
23119;SDS011;11729;50.836;4.330;2023-04-25T07:03:26;16.98;;;8.20;;
23119;SDS011;11729;50.836;4.330;2023-04-25T07:05:52;24.92;;;8.48;;
23119;SDS011;11729;50.836;4.330;2023-04-25T07:08:17;17.30;;;8.20;;
23119;SDS011;11729;50.836;4.330;2023-04-25T07:10:43;15.05;;;7.90;;
23119;SDS011;11729;50.836;4.330;2023-04-25T07:13:08;16.63;;;8.00;;
23119;SDS011;11729;50.836;4.330;2023-04-25T07:15:34;25.27;;;8.25;;
23119;SDS011;11729;50.836;4.330;2023-04-25T07:18:00;20.13;;;8.13;;
23119;SDS011;11729;50.836;4.330;2023-04-25T07:20:25;20.00;;;8.10;;
23119;SDS011;11729;50.836;4.330;2023-04-25T07:22:52;24.48;;;7.80;;
23119;SDS011;11729;50.836;4.330;2023-04-25T07:25:18;14.35;;;7.70;;
23119;SDS011;11729;50.836;4.330;2023-04-25T07:27:44;24.13;;;8.45;;
23119;SDS011;11729;50.836;4.330;2023-04-25T07:30:10;23.30;;;8.10;;
23119;SDS011;11729;50.836;4.330;2023-04-25T07:32:36;25.42;;;8.13;;
23119;SDS011;11729;50.836;4.330;2023-04-25T07:35:02;20.25;;;7.75;;
23119;SDS011;11729;50.836;4.330;2023-04-25T07:37:28;20.75;;;8.13;;
23119;SDS011;11729;50.836;4.330;2023-04-25T07:39:54;22.05;;;8.05;;
23119;SDS011;11729;50.836;4.330;2023-04-25T07:42:20;14.18;;;7.20;;
23119;SDS011;11729;50.836;4.330;2023-04-25T07:44:46;18.55;;;7.55;;
23119;SDS011;11729;50.836;4.330;2023-04-25T07:47:12;19.92;;;7.65;;
23119;SDS011;11729;50.836;4.330;2023-04-25T07:49:38;16.35;;;7.63;;
23119;SDS011;11729;50.836;4.330;2023-04-25T07:52:05;14.73;;;6.80;;
23119;SDS011;11729;50.836;4.330;2023-04-25T07:54:31;20.90;;;7.90;;
23119;SDS011;11729;50.836;4.330;2023-04-25T07:56:57;19.90;;;7.63;;
23119;SDS011;11729;50.836;4.330;2023-04-25T07:59:23;15.43;;;6.93;;
23119;SDS011;11729;50.836;4.330;2023-04-25T08:01:49;17.02;;;7.00;;
23119;SDS011;11729;50.836;4.330;2023-04-25T08:04:15;14.60;;;7.55;;
23119;SDS011;11729;50.836;4.330;2023-04-25T08:06:41;20.38;;;7.45;;
23119;SDS011;11729;50.836;4.330;2023-04-25T08:09:09;21.00;;;7.45;;
23119;SDS011;11729;50.836;4.330;2023-04-25T08:11:35;16.33;;;7.00;;
23119;SDS011;11729;50.836;4.330;2023-04-25T08:14:01;14.52;;;7.45;;
23119;SDS011;11729;50.836;4.330;2023-04-25T08:16:27;22.02;;;7.38;;
23119;SDS011;11729;50.836;4.330;2023-04-25T08:18:52;20.77;;;7.45;;
23119;SDS011;11729;50.836;4.330;2023-04-25T08:21:18;17.75;;;7.03;;
23119;SDS011;11729;50.836;4.330;2023-04-25T08:23:44;22.88;;;6.90;;
23119;SDS011;11729;50.836;4.330;2023-04-25T08:26:11;19.52;;;7.18;;
23119;SDS011;11729;50.836;4.330;2023-04-25T08:28:37;17.02;;;7.45;;
23119;SDS011;11729;50.836;4.330;2023-04-25T08:31:02;14.82;;;7.28;;
23119;SDS011;11729;50.836;4.330;2023-04-25T08:33:28;12.43;;;7.00;;
23119;SDS011;11729;50.836;4.330;2023-04-25T08:35:56;17.73;;;7.72;;
23119;SDS011;11729;50.836;4.330;2023-04-25T08:38:21;18.48;;;7.07;;
23119;SDS011;11729;50.836;4.330;2023-04-25T08:40:49;13.77;;;6.40;;
23119;SDS011;11729;50.836;4.330;2023-04-25T08:43:17;11.73;;;6.30;;
23119;SDS011;11729;50.836;4.330;2023-04-25T08:45:44;17.10;;;6.88;;
23119;SDS011;11729;50.836;4.330;2023-04-25T08:48:11;14.30;;;7.05;;
23119;SDS011;11729;50.836;4.330;2023-04-25T08:50:50;12.77;;;7.18;;
23119;SDS011;11729;50.836;4.330;2023-04-25T08:53:22;13.38;;;6.70;;
23119;SDS011;11729;50.836;4.330;2023-04-25T08:55:51;12.15;;;6.00;;
23119;SDS011;11729;50.836;4.330;2023-04-25T08:58:19;13.57;;;6.38;;
23119;SDS011;11729;50.836;4.330;2023-04-25T09:00:45;10.75;;;6.00;;
23119;SDS011;11729;50.836;4.330;2023-04-25T09:03:15;11.98;;;6.22;;
23119;SDS011;11729;50.836;4.330;2023-04-25T09:05:41;15.15;;;6.43;;
23119;SDS011;11729;50.836;4.330;2023-04-25T09:08:07;16.92;;;6.45;;
23119;SDS011;11729;50.836;4.330;2023-04-25T09:10:33;12.30;;;5.63;;
23119;SDS011;11729;50.836;4.330;2023-04-25T09:15:29;9.88;;;5.68;;
23119;SDS011;11729;50.836;4.330;2023-04-25T09:17:55;12.68;;;5.78;;
23119;SDS011;11729;50.836;4.330;2023-04-25T09:20:22;8.55;;;5.68;;
23119;SDS011;11729;50.836;4.330;2023-04-25T09:22:47;8.65;;;5.80;;
23119;SDS011;11729;50.836;4.330;2023-04-25T09:25:13;11.60;;;5.72;;
23119;SDS011;11729;50.836;4.330;2023-04-25T09:27:49;13.85;;;5.95;;
23119;SDS011;11729;50.836;4.330;2023-04-25T09:30:16;12.70;;;6.37;;
23119;SDS011;11729;50.836;4.330;2023-04-25T09:32:43;11.15;;;5.93;;
23119;SDS011;11729;50.836;4.330;2023-04-25T09:35:09;13.05;;;6.13;;
23119;SDS011;11729;50.836;4.330;2023-04-25T09:37:36;10.85;;;6.15;;
23119;SDS011;11729;50.836;4.330;2023-04-25T09:40:05;11.38;;;5.93;;
23119;SDS011;11729;50.836;4.330;2023-04-25T09:42:32;11.10;;;6.78;;
23119;SDS011;11729;50.836;4.330;2023-04-25T09:45:00;12.13;;;6.00;;
23119;SDS011;11729;50.836;4.330;2023-04-25T09:47:29;8.00;;;6.00;;
23119;SDS011;11729;50.836;4.330;2023-04-25T09:49:55;11.82;;;6.60;;
23119;SDS011;11729;50.836;4.330;2023-04-25T09:52:21;9.00;;;5.57;;
23119;SDS011;11729;50.836;4.330;2023-04-25T09:54:49;10.75;;;6.18;;
23119;SDS011;11729;50.836;4.330;2023-04-25T09:57:17;8.05;;;5.68;;
23119;SDS011;11729;50.836;4.330;2023-04-25T09:59:50;10.02;;;5.47;;
23119;SDS011;11729;50.836;4.330;2023-04-25T10:02:22;9.48;;;5.78;;
23119;SDS011;11729;50.836;4.330;2023-04-25T10:04:51;10.13;;;5.78;;
23119;SDS011;11729;50.836;4.330;2023-04-25T10:07:19;9.00;;;5.45;;
23119;SDS011;11729;50.836;4.330;2023-04-25T10:09:48;8.20;;;5.07;;
23119;SDS011;11729;50.836;4.330;2023-04-25T10:12:16;8.15;;;5.43;;
23119;SDS011;11729;50.836;4.330;2023-04-25T10:14:42;7.53;;;5.53;;
23119;SDS011;11729;50.836;4.330;2023-04-25T10:17:10;9.20;;;5.40;;
23119;SDS011;11729;50.836;4.330;2023-04-25T10:19:39;6.40;;;5.20;;
23119;SDS011;11729;50.836;4.330;2023-04-25T10:24:36;8.48;;;5.68;;
23119;SDS011;11729;50.836;4.330;2023-04-25T10:27:04;5.28;;;4.78;;
23119;SDS011;11729;50.836;4.330;2023-04-25T10:29:31;8.10;;;5.10;;
23119;SDS011;11729;50.836;4.330;2023-04-25T10:31:57;7.28;;;5.07;;
23119;SDS011;11729;50.836;4.330;2023-04-25T10:37:05;6.90;;;5.13;;
23119;SDS011;11729;50.836;4.330;2023-04-25T10:39:34;6.07;;;4.80;;
23119;SDS011;11729;50.836;4.330;2023-04-25T10:42:01;11.02;;;5.70;;
23119;SDS011;11729;50.836;4.330;2023-04-25T10:44:28;9.45;;;5.80;;
23119;SDS011;11729;50.836;4.330;2023-04-25T10:46:55;5.43;;;4.95;;
23119;SDS011;11729;50.836;4.330;2023-04-25T10:55:26;14.70;;;5.97;;
23119;SDS011;11729;50.836;4.330;2023-04-25T10:57:37;10.98;;;5.78;;
23119;SDS011;11729;50.836;4.330;2023-04-25T11:00:05;8.02;;;5.32;;
23119;SDS011;11729;50.836;4.330;2023-04-25T11:02:36;12.45;;;5.78;;
23119;SDS011;11729;50.836;4.330;2023-04-25T11:05:10;10.70;;;5.75;;
23119;SDS011;11729;50.836;4.330;2023-04-25T11:07:49;13.10;;;6.25;;
23119;SDS011;11729;50.836;4.330;2023-04-25T11:10:16;13.02;;;6.15;;
23119;SDS011;11729;50.836;4.330;2023-04-25T11:12:42;11.25;;;6.40;;
23119;SDS011;11729;50.836;4.330;2023-04-25T11:15:09;15.02;;;6.03;;
23119;SDS011;11729;50.836;4.330;2023-04-25T11:17:35;15.50;;;6.28;;
23119;SDS011;11729;50.836;4.330;2023-04-25T11:20:01;19.98;;;5.82;;
23119;SDS011;11729;50.836;4.330;2023-04-25T11:22:32;10.73;;;6.30;;
23119;SDS011;11729;50.836;4.330;2023-04-25T11:25:04;16.75;;;6.13;;
23119;SDS011;11729;50.836;4.330;2023-04-25T11:27:30;10.20;;;5.95;;
23119;SDS011;11729;50.836;4.330;2023-04-25T11:29:56;9.55;;;5.75;;
23119;SDS011;11729;50.836;4.330;2023-04-25T11:32:23;16.60;;;6.35;;
23119;SDS011;11729;50.836;4.330;2023-04-25T11:34:48;9.68;;;5.95;;
23119;SDS011;11729;50.836;4.330;2023-04-25T11:37:15;8.95;;;6.00;;
23119;SDS011;11729;50.836;4.330;2023-04-25T11:39:47;13.63;;;5.45;;
23119;SDS011;11729;50.836;4.330;2023-04-25T11:42:17;11.02;;;5.40;;
23119;SDS011;11729;50.836;4.330;2023-04-25T11:44:43;10.68;;;6.28;;
23119;SDS011;11729;50.836;4.330;2023-04-25T11:47:10;9.93;;;5.70;;
23119;SDS011;11729;50.836;4.330;2023-04-25T11:49:35;8.35;;;5.80;;
23119;SDS011;11729;50.836;4.330;2023-04-25T11:52:02;10.45;;;5.60;;
23119;SDS011;11729;50.836;4.330;2023-04-25T11:54:31;6.63;;;5.45;;
23119;SDS011;11729;50.836;4.330;2023-04-25T11:56:56;9.48;;;5.13;;
23119;SDS011;11729;50.836;4.330;2023-04-25T11:59:23;7.63;;;5.07;;
23119;SDS011;11729;50.836;4.330;2023-04-25T12:01:50;10.30;;;5.45;;
23119;SDS011;11729;50.836;4.330;2023-04-25T12:04:22;6.72;;;5.20;;
23119;SDS011;11729;50.836;4.330;2023-04-25T12:06:49;10.43;;;5.47;;
23119;SDS011;11729;50.836;4.330;2023-04-25T12:09:20;9.02;;;5.40;;
23119;SDS011;11729;50.836;4.330;2023-04-25T12:11:53;8.57;;;5.30;;
23119;SDS011;11729;50.836;4.330;2023-04-25T12:16:52;10.02;;;5.25;;
23119;SDS011;11729;50.836;4.330;2023-04-25T12:19:19;8.07;;;5.32;;
23119;SDS011;11729;50.836;4.330;2023-04-25T12:21:46;7.63;;;5.40;;
23119;SDS011;11729;50.836;4.330;2023-04-25T12:24:23;7.82;;;5.43;;
23119;SDS011;11729;50.836;4.330;2023-04-25T12:29:31;7.07;;;4.68;;
23119;SDS011;11729;50.836;4.330;2023-04-25T12:31:58;6.32;;;5.20;;
23119;SDS011;11729;50.836;4.330;2023-04-25T12:34:26;6.82;;;4.78;;
23119;SDS011;11729;50.836;4.330;2023-04-25T12:36:52;6.15;;;5.10;;
23119;SDS011;11729;50.836;4.330;2023-04-25T12:41:50;8.25;;;5.10;;
23119;SDS011;11729;50.836;4.330;2023-04-25T12:44:17;5.10;;;4.70;;
23119;SDS011;11729;50.836;4.330;2023-04-25T12:46:42;5.35;;;4.85;;
23119;SDS011;11729;50.836;4.330;2023-04-25T12:49:08;10.02;;;5.00;;
23119;SDS011;11729;50.836;4.330;2023-04-25T12:51:35;6.72;;;5.50;;
23119;SDS011;11729;50.836;4.330;2023-04-25T12:54:01;8.70;;;5.38;;
23119;SDS011;11729;50.836;4.330;2023-04-25T12:56:29;5.60;;;5.03;;
23119;SDS011;11729;50.836;4.330;2023-04-25T12:58:55;7.20;;;5.45;;
23119;SDS011;11729;50.836;4.330;2023-04-25T13:01:25;7.00;;;5.47;;
23119;SDS011;11729;50.836;4.330;2023-04-25T13:03:52;8.13;;;5.38;;
23119;SDS011;11729;50.836;4.330;2023-04-25T13:06:19;9.23;;;5.50;;
23119;SDS011;11729;50.836;4.330;2023-04-25T13:08:46;10.15;;;5.50;;
23119;SDS011;11729;50.836;4.330;2023-04-25T13:11:12;6.95;;;5.30;;
23119;SDS011;11729;50.836;4.330;2023-04-25T13:13:39;13.77;;;5.30;;
23119;SDS011;11729;50.836;4.330;2023-04-25T13:16:14;9.27;;;5.03;;
23119;SDS011;11729;50.836;4.330;2023-04-25T13:18:40;7.38;;;5.28;;
23119;SDS011;11729;50.836;4.330;2023-04-25T13:21:06;7.80;;;5.30;;
23119;SDS011;11729;50.836;4.330;2023-04-25T13:23:31;8.52;;;5.57;;
23119;SDS011;11729;50.836;4.330;2023-04-25T13:25:57;13.20;;;5.70;;
23119;SDS011;11729;50.836;4.330;2023-04-25T13:28:25;6.35;;;4.88;;
23119;SDS011;11729;50.836;4.330;2023-04-25T13:30:51;10.32;;;4.90;;
23119;SDS011;11729;50.836;4.330;2023-04-25T13:33:17;10.55;;;4.75;;
23119;SDS011;11729;50.836;4.330;2023-04-25T13:35:44;5.18;;;4.50;;
23119;SDS011;11729;50.836;4.330;2023-04-25T13:38:18;6.20;;;4.40;;
23119;SDS011;11729;50.836;4.330;2023-04-25T13:40:50;9.60;;;4.43;;
23119;SDS011;11729;50.836;4.330;2023-04-25T13:43:21;6.45;;;4.65;;
23119;SDS011;11729;50.836;4.330;2023-04-25T13:45:48;6.50;;;5.30;;
23119;SDS011;11729;50.836;4.330;2023-04-25T13:48:15;5.75;;;5.10;;
23119;SDS011;11729;50.836;4.330;2023-04-25T13:50:41;5.45;;;4.95;;
23119;SDS011;11729;50.836;4.330;2023-04-25T13:53:08;6.78;;;5.43;;
23119;SDS011;11729;50.836;4.330;2023-04-25T13:55:34;8.88;;;5.72;;
23119;SDS011;11729;50.836;4.330;2023-04-25T13:58:04;7.40;;;5.10;;
23119;SDS011;11729;50.836;4.330;2023-04-25T14:00:35;8.07;;;5.03;;
23119;SDS011;11729;50.836;4.330;2023-04-25T14:03:03;6.22;;;4.75;;
23119;SDS011;11729;50.836;4.330;2023-04-25T14:05:32;7.22;;;5.40;;
23119;SDS011;11729;50.836;4.330;2023-04-25T14:07:59;11.15;;;5.28;;
23119;SDS011;11729;50.836;4.330;2023-04-25T14:10:29;6.97;;;4.90;;
23119;SDS011;11729;50.836;4.330;2023-04-25T14:12:55;6.88;;;4.82;;
23119;SDS011;11729;50.836;4.330;2023-04-25T14:15:20;9.45;;;5.40;;
23119;SDS011;11729;50.836;4.330;2023-04-25T14:17:46;8.20;;;5.03;;
23119;SDS011;11729;50.836;4.330;2023-04-25T14:20:13;9.40;;;5.10;;
23119;SDS011;11729;50.836;4.330;2023-04-25T14:22:39;8.02;;;5.20;;
23119;SDS011;11729;50.836;4.330;2023-04-25T14:25:08;7.32;;;5.30;;
23119;SDS011;11729;50.836;4.330;2023-04-25T14:27:35;6.43;;;5.13;;
23119;SDS011;11729;50.836;4.330;2023-04-25T14:30:01;9.18;;;5.32;;
23119;SDS011;11729;50.836;4.330;2023-04-25T14:32:26;8.20;;;5.35;;
23119;SDS011;11729;50.836;4.330;2023-04-25T14:34:52;7.38;;;5.45;;
23119;SDS011;11729;50.836;4.330;2023-04-25T14:37:18;7.28;;;5.15;;
23119;SDS011;11729;50.836;4.330;2023-04-25T14:39:43;7.47;;;5.35;;
23119;SDS011;11729;50.836;4.330;2023-04-25T14:42:09;13.18;;;5.60;;
23119;SDS011;11729;50.836;4.330;2023-04-25T14:44:37;7.60;;;5.45;;
23119;SDS011;11729;50.836;4.330;2023-04-25T14:47:04;14.45;;;5.68;;
23119;SDS011;11729;50.836;4.330;2023-04-25T14:49:29;17.15;;;5.80;;
23119;SDS011;11729;50.836;4.330;2023-04-25T14:51:56;10.07;;;5.57;;